Amanda Park, Washington
Current Conditions -  °F | °C
As of 8:02 AM on Thursday 23 Oct 2014 (Local Time) from KHQM Reporting Station
Moderate Rain Moderate Rain  
Wind Chill: 52°   Ceiling: 4600
Heat Index: 52°   Visibility: 3mi
Dew Point: 51°   Wind: 12mph
Humidity: 97%   Direction: 120°ESE
Pressure: 29.72"   Gusts: NA
Location:  47.46°N, 123.89°W
Report Text: KHQM 231502Z AUTO 12010KT 3SM RA BR FEW009 BKN046 OVC055 11/11 A2972 RMK AO2 P0004 T01110106
Loading
Personal Weather Stations






























Interactive Weather Map New forecast layout! Learn more

10-Day Weather Forecast

Advertisements
Track Severe Weather on mobile